Time;durP1;ratioP1;P1;durP2;ratioP2;P2;SDS_P1;SDS_P2;PMS_P1;PMS_P2;Temp;Humidity;BMP_temperature;BMP_pressure;BME280_temperature;BME280_humidity;BME280_pressure;Samples;Min_cycle;Max_cycle;Signal;HPM_P1;HPM_P2
2022/06/02 00:02:27;;;;;;;12.07;10.43;;;10.10;99.90;;;;;;5066891;28;20767;-41
2022/06/02 00:05:13;;;;;;;13.33;10.50;;;10.20;99.90;;;;;;5063514;28;20460;-39
2022/06/02 00:07:57;;;;;;;12.17;11.00;;;10.00;99.90;;;;;;5068776;28;20447;-43
2022/06/02 00:10:50;;;;;;;11.20;10.03;;;10.10;99.90;;;;;;5068866;28;20813;-41
2022/06/02 00:13:44;;;;;;;12.90;11.60;;;10.10;99.90;;;;;;5050933;28;20934;-39
2022/06/02 00:16:17;;;;;;;11.40;10.30;;;10.20;99.90;;;;;;5052788;28;20781;-39
2022/06/02 00:18:52;;;;;;;11.70;10.50;;;10.10;99.90;;;;;;5068429;28;20937;-39
2022/06/02 00:21:29;;;;;;;10.87;9.70;;;10.20;99.90;;;;;;5059901;28;20431;-40
2022/06/02 00:24:03;;;;;;;11.83;10.70;;;9.90;99.90;;;;;;5060624;28;20418;-39
2022/06/02 00:26:45;;;;;;;10.80;9.80;;;9.90;99.90;;;;;;5062093;28;20526;-39
2022/06/02 00:29:42;;;;;;;12.93;11.70;;;10.00;99.90;;;;;;5047873;28;20478;-38
2022/06/02 00:32:31;;;;;;;11.13;10.07;;;10.00;99.90;;;;;;5059702;28;20415;-39
2022/06/02 00:35:20;;;;;;;12.73;11.30;;;10.00;99.90;;;;;;5062566;28;20424;-40
2022/06/02 00:37:58;;;;;;;12.50;11.30;;;10.00;99.90;;;;;;5066532;28;20430;-40
2022/06/02 00:40:25;;;;;;;11.97;10.87;;;10.00;99.90;;;;;;5068855;28;20426;-39
2022/06/02 00:43:05;;;;;;;13.10;11.80;;;10.00;99.90;;;;;;5053251;28;20470;-39
2022/06/02 00:45:31;;;;;;;10.67;9.67;;;10.00;99.90;;;;;;5054625;28;20469;-41
2022/06/02 00:48:18;;;;;;;11.97;10.87;;;9.90;99.90;;;;;;5068009;28;20424;-39
2022/06/02 00:51:09;;;;;;;11.43;9.63;;;10.00;99.90;;;;;;5058508;28;20415;-39
2022/06/02 00:57:30;;;;;;;11.70;10.50;;;10.00;99.90;;;;;;5041062;28;20464;-39
2022/06/02 01:00:35;;;;;;;10.93;9.90;;;10.20;99.90;;;;;;5049921;28;20440;-39
2022/06/02 01:03:13;;;;;;;11.37;10.27;;;10.00;99.90;;;;;;5058200;28;20430;-39
2022/06/02 01:05:58;;;;;;;10.53;9.53;;;9.80;99.90;;;;;;5066198;28;20466;-39
2022/06/02 01:08:45;;;;;;;11.53;10.30;;;9.70;99.90;;;;;;5067955;28;20426;-39
2022/06/02 01:11:16;;;;;;;11.77;10.47;;;9.70;99.90;;;;;;5066062;28;20500;-40
2022/06/02 01:13:50;;;;;;;11.30;10.20;;;9.60;99.90;;;;;;5050371;28;20424;-39
2022/06/02 01:16:18;;;;;;;12.50;11.30;;;9.60;99.90;;;;;;5055413;28;20997;-39
2022/06/02 01:19:10;;;;;;;12.77;11.47;;;9.50;99.90;;;;;;5066820;28;20454;-39
2022/06/02 01:22:04;;;;;;;12.17;10.90;;;9.50;99.90;;;;;;5050735;28;20529;-40
2022/06/02 01:24:53;;;;;;;12.37;10.77;;;9.50;99.90;;;;;;5064976;28;20537;-39
2022/06/02 01:27:39;;;;;;;13.70;12.30;;;9.40;99.90;;;;;;5056147;28;20428;-39
2022/06/02 01:30:22;;;;;;;13.63;10.93;;;9.40;99.90;;;;;;5046685;28;20404;-39
2022/06/02 01:33:11;;;;;;;12.87;11.67;;;9.30;99.90;;;;;;5064170;28;20814;-39
2022/06/02 01:35:56;;;;;;;12.13;10.90;;;9.30;99.90;;;;;;5060200;28;20432;-39
2022/06/02 01:38:46;;;;;;;11.87;10.67;;;9.30;99.90;;;;;;5067499;28;20473;-41
2022/06/02 01:41:18;;;;;;;13.87;12.53;;;9.20;99.90;;;;;;5068681;28;20454;-39
2022/06/02 01:44:25;;;;;;;13.47;12.20;;;9.40;99.90;;;;;;5053049;28;20764;-39
2022/06/02 01:46:56;;;;;;;14.07;12.07;;;9.30;99.90;;;;;;5038987;28;20467;-39
2022/06/02 01:49:31;;;;;;;12.80;11.50;;;9.20;99.90;;;;;;5071554;28;20465;-39
2022/06/02 01:52:06;;;;;;;13.97;12.30;;;9.40;99.90;;;;;;5067277;28;20445;-39
2022/06/02 01:54:32;;;;;;;13.63;12.33;;;9.40;99.90;;;;;;5070477;28;20419;-43
2022/06/02 01:57:05;;;;;;;13.47;12.07;;;9.20;99.90;;;;;;5064095;28;20504;-40
2022/06/02 01:59:53;;;;;;;13.30;11.90;;;9.20;99.90;;;;;;5051470;28;20937;-39
2022/06/02 02:02:28;;;;;;;12.70;11.40;;;9.10;99.90;;;;;;5053856;28;20455;-39
2022/06/02 02:04:56;;;;;;;13.23;11.93;;;9.00;99.90;;;;;;5070235;28;20465;-39
2022/06/02 02:07:28;;;;;;;13.50;12.10;;;8.90;99.90;;;;;;5070846;28;20422;-39
2022/06/02 02:10:20;;;;;;;13.73;12.37;;;8.80;99.90;;;;;;5071188;28;20424;-41
2022/06/02 02:13:03;;;;;;;12.50;11.20;;;8.90;99.90;;;;;;5057966;28;20433;-39
2022/06/02 02:15:37;;;;;;;14.30;12.80;;;8.90;99.90;;;;;;5057445;28;20813;-40
2022/06/02 02:18:17;;;;;;;15.63;13.10;;;9.10;99.90;;;;;;5062465;28;20811;-39
2022/06/02 02:21:15;;;;;;;16.60;13.70;;;8.80;99.90;;;;;;5063381;28;20419;-41
2022/06/02 02:24:10;;;;;;;18.07;13.83;;;9.00;99.90;;;;;;5050094;28;20423;-39
2022/06/02 02:26:44;;;;;;;14.80;13.30;;;9.20;99.90;;;;;;5065771;28;20446;-39
2022/06/02 02:29:24;;;;;;;15.50;13.90;;;9.00;99.90;;;;;;5051950;28;20407;-39
2022/06/02 02:32:07;;;;;;;15.50;13.13;;;9.10;99.90;;;;;;5053244;28;20435;-39
2022/06/02 02:35:03;;;;;;;15.10;13.50;;;9.00;99.90;;;;;;5070841;28;20433;-38
2022/06/02 02:37:48;;;;;;;15.90;14.30;;;9.00;99.90;;;;;;5066213;28;20424;-39
2022/06/02 02:40:27;;;;;;;15.33;12.90;;;9.00;99.90;;;;;;5070537;28;20416;-39
2022/06/02 02:43:06;;;;;;;16.77;14.03;;;8.90;99.90;;;;;;5060761;28;20432;-40
2022/06/02 02:45:54;;;;;;;14.40;12.67;;;8.90;99.90;;;;;;5055651;28;20515;-40
2022/06/02 02:48:37;;;;;;;16.37;13.93;;;9.00;99.90;;;;;;5053967;28;20415;-39
2022/06/02 02:51:19;;;;;;;16.63;14.83;;;8.80;99.90;;;;;;5039392;28;20416;-39
2022/06/02 02:54:04;;;;;;;15.70;13.80;;;8.80;99.90;;;;;;5067449;28;20485;-40
2022/06/02 02:56:40;;;;;;;16.73;14.97;;;8.60;99.90;;;;;;5070258;28;20846;-39
2022/06/02 02:59:30;;;;;;;16.97;15.13;;;8.70;99.90;;;;;;5053263;28;20477;-39
2022/06/02 03:02:05;;;;;;;16.53;14.77;;;8.90;99.90;;;;;;5059156;28;21204;-40
2022/06/02 03:04:50;;;;;;;17.80;14.90;;;8.60;99.90;;;;;;5061647;28;20455;-40
2022/06/02 03:07:16;;;;;;;19.30;16.40;;;8.60;99.90;;;;;;5058114;28;20449;-39
2022/06/02 03:10:04;;;;;;;16.73;15.00;;;8.60;99.90;;;;;;5070139;28;20427;-39
2022/06/02 03:12:48;;;;;;;17.33;15.00;;;8.60;99.90;;;;;;5062147;28;20882;-41
2022/06/02 03:15:53;;;;;;;17.70;15.80;;;8.70;99.90;;;;;;5057046;28;20427;-42
2022/06/02 03:18:33;;;;;;;17.23;15.43;;;8.50;99.90;;;;;;5063968;28;20459;-40
2022/06/02 03:21:09;;;;;;;19.10;16.30;;;8.50;99.90;;;;;;5062866;28;20506;-40
2022/06/02 03:24:06;;;;;;;19.27;17.17;;;8.40;99.90;;;;;;5058321;28;20427;-40
2022/06/02 03:27:04;;;;;;;18.40;16.40;;;8.50;99.90;;;;;;5069407;28;20411;-39
2022/06/02 03:30:02;;;;;;;20.23;16.67;;;8.50;99.90;;;;;;5041991;28;20415;-41
2022/06/02 03:32:56;;;;;;;19.87;16.87;;;8.50;99.90;;;;;;5052245;28;20416;-41
2022/06/02 03:35:46;;;;;;;22.00;17.60;;;8.50;99.90;;;;;;5068605;28;20418;-43
2022/06/02 03:38:29;;;;;;;21.50;17.40;;;8.40;99.90;;;;;;5068917;28;20435;-39
2022/06/02 03:41:07;;;;;;;19.77;16.50;;;8.60;99.90;;;;;;5069496;28;20991;-40
2022/06/02 03:43:41;;;;;;;19.47;17.30;;;8.40;99.90;;;;;;5055433;28;20428;-39
2022/06/02 03:46:56;;;;;;;21.90;18.00;;;8.40;99.90;;;;;;5056523;28;20811;-39
2022/06/02 03:49:43;;;;;;;19.27;16.47;;;8.50;99.90;;;;;;5069277;28;20477;-39
2022/06/02 03:52:45;;;;;;;20.50;17.00;;;8.40;99.90;;;;;;5056923;28;20427;-41
2022/06/02 03:55:20;;;;;;;22.10;17.27;;;8.50;99.90;;;;;;5068453;28;20430;-39
2022/06/02 03:58:10;;;;;;;21.03;18.53;;;8.40;99.90;;;;;;5060217;28;20451;-39
2022/06/02 04:00:35;;;;;;;20.93;17.20;;;8.50;99.90;;;;;;5057713;28;20423;-39
2022/06/02 04:03:08;;;;;;;21.20;18.13;;;8.50;99.90;;;;;;5061518;28;20460;-40
2022/06/02 04:06:06;;;;;;;21.60;17.63;;;8.50;99.90;;;;;;5066812;28;20860;-39
2022/06/02 04:08:37;;;;;;;21.50;17.83;;;8.60;99.90;;;;;;5066157;28;20404;-39
2022/06/02 04:14:56;;;;;;;22.30;18.60;;;8.70;99.90;;;;;;5026897;28;20428;-40
2022/06/02 04:17:29;;;;;;;29.67;20.83;;;8.70;99.90;;;;;;5047149;28;20542;-40
2022/06/02 04:20:35;;;;;;;22.87;19.40;;;8.60;99.90;;;;;;5067184;28;20470;-39
2022/06/02 04:23:15;;;;;;;23.53;20.20;;;8.80;99.90;;;;;;5050203;28;20462;-39
2022/06/02 04:26:21;;;;;;;23.17;19.70;;;8.90;99.90;;;;;;5068931;28;20465;-42
2022/06/02 04:29:05;;;;;;;22.20;19.60;;;8.90;99.90;;;;;;5053635;28;20482;-39
2022/06/02 04:32:04;;;;;;;29.27;21.73;;;9.00;99.90;;;;;;5053597;28;20469;-40
2022/06/02 04:35:10;;;;;;;24.87;18.93;;;9.20;99.90;;;;;;5065915;28;20982;-39
2022/06/02 04:37:41;;;;;;;24.77;20.60;;;9.40;99.90;;;;;;5053630;28;20492;-40
2022/06/02 04:40:47;;;;;;;22.67;19.93;;;9.40;99.90;;;;;;5068901;28;20423;-40
2022/06/02 04:43:33;;;;;;;23.70;20.03;;;9.50;99.90;;;;;;5042260;28;20489;-39
2022/06/02 04:46:17;;;;;;;26.70;19.90;;;9.50;99.90;;;;;;5046455;28;20923;-39
2022/06/02 04:49:08;;;;;;;22.33;19.60;;;9.70;99.90;;;;;;5049303;28;20759;-41
2022/06/02 04:52:02;;;;;;;24.47;19.73;;;9.90;99.90;;;;;;5049562;28;20413;-40
2022/06/02 04:54:57;;;;;;;23.13;19.93;;;9.80;99.90;;;;;;5046254;28;20414;-39
2022/06/02 04:57:43;;;;;;;23.60;20.57;;;9.90;99.90;;;;;;5053691;28;20519;-39
2022/06/02 05:00:15;;;;;;;23.07;18.80;;;10.00;99.90;;;;;;5051339;28;20412;-40
2022/06/02 05:02:44;;;;;;;24.50;19.60;;;10.20;99.90;;;;;;5049405;28;20420;-42
2022/06/02 05:05:34;;;;;;;24.37;20.23;;;10.20;99.90;;;;;;5065792;28;20979;-42
2022/06/02 05:08:19;;;;;;;24.17;19.40;;;10.40;99.90;;;;;;5063917;28;20423;-40
2022/06/02 05:11:20;;;;;;;21.13;18.13;;;10.60;99.90;;;;;;5068675;28;20419;-40
2022/06/02 05:14:03;;;;;;;20.27;17.37;;;10.60;99.90;;;;;;5054432;28;20420;-41
2022/06/02 05:17:04;;;;;;;22.60;18.50;;;10.70;99.90;;;;;;5052886;28;20761;-40
2022/06/02 05:19:42;;;;;;;23.40;18.53;;;11.10;99.90;;;;;;5063018;28;20423;-40
2022/06/02 05:22:25;;;;;;;20.40;17.60;;;11.20;99.90;;;;;;5057901;28;20772;-40
2022/06/02 05:25:20;;;;;;;21.20;17.80;;;11.40;99.90;;;;;;5070915;28;20462;-40
2022/06/02 05:27:58;;;;;;;22.43;18.20;;;11.60;99.90;;;;;;5059399;28;20423;-41
2022/06/02 05:30:58;;;;;;;26.23;20.83;;;11.70;99.90;;;;;;5053143;28;21026;-40
2022/06/02 05:33:39;;;;;;;20.57;17.30;;;11.70;99.90;;;;;;5057801;28;20464;-40
2022/06/02 05:36:29;;;;;;;20.93;17.40;;;11.90;99.90;;;;;;5068711;28;20411;-40
2022/06/02 05:39:09;;;;;;;20.50;17.80;;;12.10;99.90;;;;;;5050051;28;20482;-40
2022/06/02 05:41:56;;;;;;;20.20;18.00;;;12.30;99.90;;;;;;5050701;28;20957;-39
2022/06/02 05:44:33;;;;;;;20.93;18.50;;;12.40;99.90;;;;;;5049278;28;20433;-41
2022/06/02 05:47:11;;;;;;;21.60;18.67;;;12.50;99.90;;;;;;5049692;28;20417;-43
2022/06/02 05:49:54;;;;;;;21.77;19.40;;;12.50;99.90;;;;;;5058381;28;20507;-41
2022/06/02 05:53:08;;;;;;;19.90;17.87;;;12.70;99.90;;;;;;5052407;28;20417;-39
2022/06/02 05:56:03;;;;;;;18.77;16.77;;;12.80;99.90;;;;;;5066810;28;20874;-43
2022/06/02 05:58:50;;;;;;;19.50;17.50;;;13.10;99.90;;;;;;5048534;28;20914;-40
2022/06/02 06:01:47;;;;;;;19.40;17.40;;;13.20;99.90;;;;;;5051739;28;20503;-40
2022/06/02 06:04:31;;;;;;;18.83;16.43;;;13.40;99.90;;;;;;5060542;28;20511;-40
2022/06/02 06:07:21;;;;;;;19.77;17.10;;;13.50;99.90;;;;;;5065416;28;20411;-40
2022/06/02 06:10:13;;;;;;;17.83;15.93;;;13.80;99.90;;;;;;5071322;28;20415;-40
2022/06/02 06:13:17;;;;;;;17.10;15.27;;;13.90;99.90;;;;;;5071457;28;20427;-41
2022/06/02 06:16:06;;;;;;;14.23;12.73;;;14.20;99.90;;;;;;5054407;28;20507;-46
2022/06/02 06:18:42;;;;;;;17.67;14.47;;;14.40;99.90;;;;;;5050979;28;20431;-40
2022/06/02 06:21:17;;;;;;;21.00;16.50;;;14.60;99.90;;;;;;5050739;28;20473;-39
2022/06/02 06:24:13;;;;;;;17.30;14.47;;;14.70;99.90;;;;;;5056295;28;20424;-39
2022/06/02 06:26:57;;;;;;;18.10;16.27;;;14.80;99.90;;;;;;5057025;28;20788;-39
2022/06/02 06:29:58;;;;;;;16.10;13.80;;;14.60;99.90;;;;;;5059304;28;20423;-41
2022/06/02 06:32:36;;;;;;;16.87;15.07;;;14.80;99.90;;;;;;5053909;28;20500;-41
2022/06/02 06:35:25;;;;;;;16.20;14.50;;;14.70;99.90;;;;;;5070948;28;20778;-40
2022/06/02 06:38:09;;;;;;;15.90;14.20;;;14.50;99.90;;;;;;5061051;28;20786;-40
2022/06/02 06:41:06;;;;;;;16.33;14.63;;;14.60;99.90;;;;;;5050830;28;20452;-40
2022/06/02 06:43:43;;;;;;;16.90;15.20;;;14.50;99.90;;;;;;5048404;28;20450;-39
2022/06/02 06:46:09;;;;;;;15.53;13.80;;;14.30;99.90;;;;;;5047194;28;20546;-40
2022/06/02 06:48:43;;;;;;;15.70;14.00;;;14.40;99.90;;;;;;5053929;28;20447;-40
2022/06/02 06:51:44;;;;;;;15.30;13.70;;;14.50;99.90;;;;;;5050208;28;20692;-43
2022/06/02 06:54:40;;;;;;;15.93;14.23;;;14.80;99.90;;;;;;4983123;28;20414;-42
2022/06/02 06:57:11;;;;;;;15.60;13.93;;;14.70;99.90;;;;;;5050889;28;20505;-41
2022/06/02 06:59:48;;;;;;;16.10;14.40;;;14.90;99.90;;;;;;5049182;28;20436;-43
2022/06/02 07:02:20;;;;;;;15.83;13.37;;;15.00;99.90;;;;;;5056612;28;20425;-41
2022/06/02 07:05:12;;;;;;;15.83;14.20;;;14.90;99.90;;;;;;5049409;28;20460;-42
2022/06/02 07:07:55;;;;;;;13.53;12.13;;;14.70;99.90;;;;;;5060517;28;20429;-41
2022/06/02 07:10:32;;;;;;;12.40;11.20;;;14.50;99.90;;;;;;5070126;28;20773;-40
2022/06/02 07:13:02;;;;;;;13.00;11.60;;;14.80;99.90;;;;;;5069899;28;20433;-40
2022/06/02 07:15:52;;;;;;;14.80;13.00;;;14.80;99.90;;;;;;5055572;28;20467;-40
2022/06/02 07:18:26;;;;;;;13.83;12.53;;;14.80;99.90;;;;;;5055856;28;20415;-40
2022/06/02 07:21:37;;;;;;;11.83;10.63;;;14.70;99.90;;;;;;5066364;28;20432;-43
2022/06/02 07:24:34;;;;;;;12.73;11.53;;;14.60;99.90;;;;;;5056096;28;20517;-44
2022/06/02 07:27:21;;;;;;;12.40;11.20;;;14.60;99.90;;;;;;5069228;28;20425;-40
2022/06/02 07:30:14;;;;;;;10.07;9.10;;;14.60;99.90;;;;;;5056965;28;20790;-42
2022/06/02 07:33:02;;;;;;;11.00;9.90;;;14.80;99.90;;;;;;5056279;28;20556;-40
2022/06/02 07:35:58;;;;;;;11.87;10.77;;;14.90;99.90;;;;;;5062936;28;20415;-40
2022/06/02 07:38:59;;;;;;;11.17;10.07;;;14.90;99.90;;;;;;5065549;28;20910;-40
2022/06/02 07:41:51;;;;;;;11.20;9.70;;;14.90;99.90;;;;;;5069778;28;20424;-40
2022/06/02 07:44:53;;;;;;;12.40;11.20;;;14.70;99.90;;;;;;5062448;28;20429;-43
2022/06/02 07:47:51;;;;;;;10.03;9.13;;;14.70;99.90;;;;;;5046019;28;20412;-41
2022/06/02 07:50:24;;;;;;;9.93;9.00;;;14.50;99.90;;;;;;5058061;28;20496;-43
2022/06/02 07:52:55;;;;;;;8.97;8.17;;;14.50;99.90;;;;;;5049564;28;20431;-40
2022/06/02 07:55:57;;;;;;;8.23;7.43;;;14.40;99.90;;;;;;5064092;28;20506;-42
2022/06/02 07:58:25;;;;;;;8.90;8.00;;;14.40;99.90;;;;;;5068650;28;20429;-40
2022/06/02 08:01:00;;;;;;;11.00;9.90;;;14.40;99.90;;;;;;5051895;28;20432;-40
2022/06/02 08:04:03;;;;;;;11.67;10.50;;;14.40;99.90;;;;;;5057573;28;20958;-41
2022/06/02 08:06:39;;;;;;;14.63;10.60;;;14.40;99.90;;;;;;5069188;28;20461;-39
2022/06/02 08:09:48;;;;;;;11.53;10.33;;;14.40;99.90;;;;;;5060482;28;20421;-41
2022/06/02 08:12:39;;;;;;;9.77;8.87;;;14.50;99.90;;;;;;5069114;28;20422;-42
2022/06/02 08:15:26;;;;;;;10.30;9.30;;;14.50;99.90;;;;;;5056439;28;20523;-42
2022/06/02 08:18:24;;;;;;;9.40;8.40;;;14.60;99.90;;;;;;5048280;28;20973;-40
2022/06/02 08:21:17;;;;;;;10.30;8.00;;;14.80;99.90;;;;;;5057845;28;20428;-40
2022/06/02 08:23:48;;;;;;;8.53;7.80;;;14.80;99.90;;;;;;5052640;28;20929;-40
2022/06/02 08:26:19;;;;;;;8.40;7.60;;;14.90;99.90;;;;;;5068617;28;20545;-40
2022/06/02 08:28:47;;;;;;;9.40;8.60;;;14.90;99.90;;;;;;5066952;28;20420;-40
2022/06/02 08:31:31;;;;;;;9.70;8.40;;;14.90;99.90;;;;;;5049921;28;20563;-41
2022/06/02 08:34:02;;;;;;;9.50;8.50;;;15.00;99.90;;;;;;5047870;28;20408;-40
2022/06/02 08:36:35;;;;;;;9.30;8.50;;;15.10;99.90;;;;;;5068675;28;20430;-40
2022/06/02 08:39:02;;;;;;;9.60;8.73;;;15.20;99.90;;;;;;5068609;28;20431;-40
2022/06/02 08:41:46;;;;;;;10.73;9.83;;;15.20;99.90;;;;;;5067800;28;20433;-40
2022/06/02 08:44:24;;;;;;;9.47;8.57;;;15.30;99.90;;;;;;5063956;28;20435;-42
2022/06/02 08:47:01;;;;;;;9.60;8.80;;;15.40;99.90;;;;;;5049608;28;20492;-40
2022/06/02 08:49:45;;;;;;;9.07;8.27;;;15.60;99.90;;;;;;5057024;28;20419;-40
2022/06/02 08:52:23;;;;;;;9.40;8.50;;;15.80;99.90;;;;;;5072212;28;20419;-39
2022/06/02 08:55:46;;;;;;;8.13;7.20;;;15.90;99.90;;;;;;5063281;28;20774;-41
2022/06/02 08:58:46;;;;;;;7.33;6.70;;;16.10;99.90;;;;;;5049093;28;20443;-39
2022/06/02 09:01:31;;;;;;;7.27;6.60;;;16.20;99.90;;;;;;5030028;28;20469;-39
2022/06/02 09:04:30;;;;;;;7.10;6.53;;;16.20;99.90;;;;;;5046556;28;20416;-39
2022/06/02 09:06:59;;;;;;;6.87;6.30;;;16.20;99.90;;;;;;5070386;28;20950;-39
2022/06/02 09:09:49;;;;;;;7.47;6.67;;;16.30;99.90;;;;;;5067978;28;20416;-40
2022/06/02 09:12:26;;;;;;;6.40;5.80;;;16.10;99.90;;;;;;5072443;28;20410;-42
2022/06/02 09:15:26;;;;;;;5.10;4.60;;;16.10;99.90;;;;;;5064551;28;20431;-42
2022/06/02 09:18:17;;;;;;;6.13;5.53;;;16.10;99.90;;;;;;5049370;28;20767;-39
2022/06/02 09:20:54;;;;;;;4.90;4.50;;;16.30;99.90;;;;;;5062159;28;20422;-40
2022/06/02 09:23:48;;;;;;;5.20;4.70;;;16.50;99.90;;;;;;5046230;28;20936;-39
2022/06/02 09:26:59;;;;;;;6.20;5.70;;;16.70;99.90;;;;;;5072060;28;20467;-40
2022/06/02 09:29:59;;;;;;;4.70;4.40;;;16.90;99.90;;;;;;5068101;28;20431;-42
2022/06/02 09:32:57;;;;;;;5.97;5.47;;;17.10;99.90;;;;;;5055684;28;20420;-39
2022/06/02 09:35:38;;;;;;;5.07;4.57;;;17.30;99.90;;;;;;5059990;28;20458;-40
2022/06/02 09:38:35;;;;;;;5.43;4.93;;;17.50;99.90;;;;;;5066675;28;20486;-40
2022/06/02 09:41:12;;;;;;;4.40;4.00;;;17.70;99.90;;;;;;5070573;28;20431;-41
2022/06/02 09:44:23;;;;;;;5.73;5.23;;;17.80;99.90;;;;;;5070670;28;20473;-40
2022/06/02 09:46:48;;;;;;;6.80;6.30;;;18.00;99.90;;;;;;5049536;28;20412;-41
2022/06/02 09:49:36;;;;;;;6.27;5.77;;;18.20;99.90;;;;;;5061305;28;20786;-40
2022/06/02 09:52:31;;;;;;;7.13;6.43;;;18.40;99.90;;;;;;5071650;28;20668;-40
2022/06/02 09:55:21;;;;;;;6.00;5.20;;;18.40;99.90;;;;;;5064210;28;20416;-41
2022/06/02 09:58:14;;;;;;;7.90;7.10;;;18.40;99.90;;;;;;5070758;28;20843;-39
2022/06/02 10:00:40;;;;;;;5.10;4.70;;;18.20;99.90;;;;;;5062681;28;20502;-40
2022/06/02 10:03:26;;;;;;;6.40;5.90;;;17.90;99.90;;;;;;5058713;28;20776;-42
2022/06/02 10:06:10;;;;;;;6.50;5.83;;;17.50;99.90;;;;;;5061008;28;20714;-42
2022/06/02 10:08:44;;;;;;;5.03;4.63;;;17.20;99.90;;;;;;5069735;28;20411;-40
2022/06/02 10:11:26;;;;;;;5.67;5.17;;;17.10;99.90;;;;;;5071260;28;20548;-40
2022/06/02 10:14:19;;;;;;;5.90;5.07;;;17.10;99.90;;;;;;5071468;28;20426;-40
2022/06/02 10:16:57;;;;;;;7.10;6.60;;;16.90;99.90;;;;;;5052050;28;20429;-43
2022/06/02 10:19:38;;;;;;;5.73;5.23;;;16.70;99.90;;;;;;5056669;28;20759;-41
2022/06/02 10:22:23;;;;;;;6.10;5.50;;;16.60;99.90;;;;;;5057679;28;20950;-41
2022/06/02 10:25:18;;;;;;;5.93;5.43;;;16.70;99.90;;;;;;5058092;28;20455;-41
2022/06/02 10:28:11;;;;;;;5.80;5.30;;;16.90;99.90;;;;;;5070429;28;20424;-40
2022/06/02 10:30:46;;;;;;;5.17;4.77;;;17.10;99.90;;;;;;5060720;28;20427;-40
2022/06/02 10:33:15;;;;;;;5.20;4.70;;;17.40;99.90;;;;;;5057822;28;20499;-41
2022/06/02 10:35:46;;;;;;;7.83;5.70;;;17.60;99.90;;;;;;5065206;28;20450;-42
2022/06/02 10:38:33;;;;;;;10.80;6.03;;;17.80;99.70;;;;;;5068406;28;20468;-40
2022/06/02 10:41:26;;;;;;;5.40;4.90;;;18.00;99.20;;;;;;5068628;28;20820;-40
2022/06/02 10:44:10;;;;;;;5.13;4.67;;;18.10;98.50;;;;;;5070776;28;20424;-40
2022/06/02 10:47:02;;;;;;;4.77;4.03;;;18.10;99.20;;;;;;5055660;28;20542;-39
2022/06/02 10:49:44;;;;;;;5.73;5.23;;;18.00;99.90;;;;;;5050918;28;20424;-40
2022/06/02 10:52:40;;;;;;;5.70;5.20;;;17.90;99.90;;;;;;5066341;28;20419;-40
2022/06/02 10:55:33;;;;;;;6.90;6.30;;;18.00;99.90;;;;;;5066424;28;20419;-44
2022/06/02 10:58:22;;;;;;;5.00;4.60;;;17.80;99.90;;;;;;5069655;28;20415;-42
2022/06/02 11:01:16;;;;;;;8.17;4.57;;;17.80;99.90;;;;;;5061708;28;20424;-39
2022/06/02 11:04:23;;;;;;;4.57;4.27;;;18.10;99.90;;;;;;5049479;28;20416;-40
2022/06/02 11:07:23;;;;;;;4.47;4.10;;;18.20;99.90;;;;;;5062209;28;20431;-41
2022/06/02 11:10:07;;;;;;;4.13;3.70;;;18.40;98.20;;;;;;5057531;28;20447;-40
2022/06/02 11:12:51;;;;;;;4.60;3.40;;;18.30;98.20;;;;;;5069993;28;20423;-40
2022/06/02 11:15:32;;;;;;;3.80;3.50;;;18.30;97.90;;;;;;5064925;28;20423;-40
2022/06/02 11:18:49;;;;;;;3.60;3.30;;;18.20;98.30;;;;;;5050684;28;20419;-40
2022/06/02 11:21:52;;;;;;;3.87;3.57;;;18.30;98.90;;;;;;5056275;28;20408;-40
2022/06/02 11:24:46;;;;;;;3.83;3.53;;;18.40;96.50;;;;;;5056876;28;20418;-40
2022/06/02 11:27:27;;;;;;;5.40;3.73;;;18.50;97.20;;;;;;5069218;28;20423;-42
2022/06/02 11:30:23;;;;;;;4.17;3.77;;;18.60;96.00;;;;;;5069928;28;20476;-40
2022/06/02 11:33:13;;;;;;;4.27;3.77;;;18.70;95.50;;;;;;5051799;28;20405;-39
2022/06/02 11:35:54;;;;;;;3.53;3.23;;;18.70;94.00;;;;;;5052459;28;20463;-41
2022/06/02 11:38:56;;;;;;;3.50;3.30;;;18.90;95.90;;;;;;5069208;28;20408;-40
2022/06/02 11:41:43;;;;;;;3.13;2.93;;;18.90;93.90;;;;;;5069683;28;20448;-40
2022/06/02 11:44:33;;;;;;;3.63;3.33;;;19.00;95.90;;;;;;5069134;28;20501;-40
2022/06/02 11:47:31;;;;;;;3.97;3.63;;;19.10;96.50;;;;;;5053507;28;20432;-39
2022/06/02 11:50:17;;;;;;;3.10;2.80;;;19.30;94.60;;;;;;5050466;28;20420;-39
2022/06/02 11:52:55;;;;;;;4.57;2.70;;;19.40;98.60;;;;;;5057203;28;20416;-42
2022/06/02 11:55:41;;;;;;;3.10;2.90;;;19.40;96.20;;;;;;5055435;28;20414;-41
2022/06/02 11:58:26;;;;;;;3.60;3.30;;;19.50;92.70;;;;;;5057304;28;20953;-40
2022/06/02 12:01:29;;;;;;;6.47;2.90;;;18.90;91.20;;;;;;5061691;28;20482;-40
2022/06/02 12:04:24;;;;;;;4.17;3.77;;;18.70;92.70;;;;;;5045344;28;20501;-40
2022/06/02 12:07:22;;;;;;;3.20;3.00;;;18.80;93.80;;;;;;5064171;28;20430;-40
2022/06/02 12:09:53;;;;;;;3.20;2.90;;;18.90;93.80;;;;;;5061058;28;20404;-40
2022/06/02 12:12:41;;;;;;;3.50;3.20;;;19.00;93.10;;;;;;5067891;28;20450;-39
2022/06/02 12:15:25;;;;;;;3.30;3.00;;;19.10;93.80;;;;;;5068841;28;20431;-41
2022/06/02 12:18:02;;;;;;;4.07;3.77;;;19.20;96.10;;;;;;5049187;28;20424;-39
2022/06/02 12:20:31;;;;;;;4.23;3.93;;;19.20;95.40;;;;;;5051778;28;20518;-40
2022/06/02 12:22:57;;;;;;;2.87;2.67;;;19.10;95.60;;;;;;5052346;28;20776;-38
2022/06/02 12:25:40;;;;;;;2.60;2.50;;;19.20;95.90;;;;;;5063587;28;20465;-40
2022/06/02 12:28:24;;;;;;;3.63;3.33;;;19.10;94.70;;;;;;5067042;28;20189;-42
2022/06/02 12:31:15;;;;;;;3.00;2.80;;;18.90;93.60;;;;;;5064680;28;20424;-40
2022/06/02 12:33:59;;;;;;;3.27;3.07;;;18.90;96.70;;;;;;5048028;28;20412;-39
2022/06/02 12:36:46;;;;;;;4.03;3.73;;;19.10;95.20;;;;;;5053072;28;20909;-39
2022/06/02 12:39:25;;;;;;;2.97;2.77;;;19.10;94.20;;;;;;5068551;28;20485;-39
2022/06/02 12:42:15;;;;;;;2.60;2.40;;;19.20;95.70;;;;;;5068848;28;20430;-39
2022/06/02 12:45:05;;;;;;;3.40;3.10;;;19.10;95.60;;;;;;5068827;28;20467;-40
2022/06/02 12:48:09;;;;;;;3.10;2.63;;;19.00;94.80;;;;;;5051960;28;20522;-40
2022/06/02 12:50:51;;;;;;;4.60;2.73;;;18.90;94.70;;;;;;5052053;28;20443;-39
2022/06/02 12:53:41;;;;;;;2.43;2.33;;;18.70;94.40;;;;;;5067400;28;20426;-39
2022/06/02 12:56:32;;;;;;;3.47;3.17;;;18.70;94.60;;;;;;5058845;28;20450;-39
2022/06/02 12:59:24;;;;;;;3.90;3.03;;;18.80;93.20;;;;;;5068443;28;20522;-40
2022/06/02 13:02:03;;;;;;;4.03;3.30;;;18.90;94.80;;;;;;5058911;28;20459;-40
2022/06/02 13:04:55;;;;;;;4.10;3.73;;;19.20;95.80;;;;;;5050697;28;20454;-39
2022/06/02 13:07:45;;;;;;;5.07;4.00;;;19.30;93.50;;;;;;5043214;28;20419;-39
2022/06/02 13:10:29;;;;;;;3.10;2.90;;;19.30;93.00;;;;;;5063528;28;20832;-40
2022/06/02 13:13:08;;;;;;;3.73;3.43;;;19.50;93.60;;;;;;5068477;28;20443;-39
2022/06/02 13:15:40;;;;;;;3.20;2.97;;;19.60;92.40;;;;;;5068527;28;20434;-40
2022/06/02 13:18:33;;;;;;;3.50;3.17;;;19.70;92.80;;;;;;5049158;28;20931;-39
2022/06/02 13:21:23;;;;;;;3.73;3.43;;;19.60;91.80;;;;;;5034451;28;20775;-41
2022/06/02 13:24:08;;;;;;;2.80;2.60;;;19.60;91.90;;;;;;5058681;28;21223;-40
2022/06/02 13:27:06;;;;;;;2.80;2.60;;;19.70;93.70;;;;;;5067614;28;20502;-42
2022/06/02 13:29:51;;;;;;;2.97;2.77;;;19.70;92.20;;;;;;5068515;28;20450;-40
2022/06/02 13:32:50;;;;;;;3.50;3.20;;;19.80;93.70;;;;;;5054331;28;20440;-39
2022/06/02 13:35:43;;;;;;;3.63;3.33;;;19.90;94.00;;;;;;5047591;28;20810;-39
2022/06/02 13:38:25;;;;;;;3.70;3.40;;;20.00;94.40;;;;;;5054248;28;20459;-40
2022/06/02 13:41:22;;;;;;;3.73;3.47;;;20.10;92.20;;;;;;5058844;28;20442;-39
2022/06/02 13:44:01;;;;;;;3.57;3.27;;;19.90;91.90;;;;;;5071781;28;20420;-40
2022/06/02 13:46:48;;;;;;;3.70;3.40;;;19.90;91.20;;;;;;5066954;28;21037;-41
2022/06/02 13:49:31;;;;;;;3.47;3.17;;;19.90;91.90;;;;;;5059881;28;20476;-38
2022/06/02 13:52:28;;;;;;;3.77;3.47;;;19.90;93.10;;;;;;5049481;28;20431;-39
2022/06/02 13:58:03;;;;;;;4.53;4.23;;;20.10;92.40;;;;;;5071126;28;21101;-38
2022/06/02 14:00:44;;;;;;;3.90;3.60;;;20.10;92.60;;;;;;5070208;28;20514;-39
2022/06/02 14:03:32;;;;;;;4.10;3.80;;;20.20;92.20;;;;;;5055619;28;20255;-42
2022/06/02 14:06:19;;;;;;;10.00;5.37;;;20.30;91.50;;;;;;5050651;28;21069;-39
2022/06/02 14:09:03;;;;;;;4.70;4.33;;;20.20;92.40;;;;;;5069917;28;20469;-39
2022/06/02 14:11:50;;;;;;;4.90;4.60;;;20.10;92.10;;;;;;5058149;28;20420;-39
2022/06/02 14:14:28;;;;;;;5.23;4.83;;;19.90;90.30;;;;;;5053008;28;20419;-39
2022/06/02 14:17:14;;;;;;;15.50;6.20;;;19.90;91.10;;;;;;5064638;28;20809;-39
2022/06/02 14:20:02;;;;;;;5.60;5.20;;;19.90;89.50;;;;;;5056946;28;20412;-39
2022/06/02 14:22:33;;;;;;;5.47;4.97;;;19.80;90.00;;;;;;5052581;28;20416;-39
2022/06/02 14:24:59;;;;;;;5.87;5.47;;;19.80;88.30;;;;;;5055976;28;20531;-42